createdAt,value
2023-01-04T00:01:05.683Z,81.82
2023-01-04T00:03:33.536Z,82.01
2023-01-04T00:06:03.886Z,81.94
2023-01-04T00:08:30.956Z,81.96
2023-01-04T00:11:14.068Z,81.92
2023-01-04T00:13:41.523Z,81.92
2023-01-04T00:16:12.332Z,81.73
2023-01-04T00:18:39.724Z,81.55
2023-01-04T00:21:12.550Z,81.49
2023-01-04T00:23:40.745Z,81.42
2023-01-04T00:26:09.850Z,81.17
2023-01-04T00:28:37.542Z,81.11
2023-01-04T00:31:06.367Z,80.68
2023-01-04T00:33:34.814Z,80.33
2023-01-04T00:36:07.306Z,80.54
2023-01-04T00:38:35.525Z,80.35
2023-01-04T00:41:03.631Z,80.23
2023-01-04T00:43:30.814Z,80.11
2023-01-04T00:45:58.093Z,79.65
2023-01-04T00:48:25.709Z,80.44
2023-01-04T00:50:52.785Z,80.35
2023-01-04T00:53:19.752Z,80.31
2023-01-04T00:55:46.999Z,80.17
2023-01-04T00:58:13.977Z,80.35
2023-01-04T01:00:41.207Z,79.84
2023-01-04T01:03:08.594Z,79.69
2023-01-04T01:05:36.207Z,79.99
2023-01-04T01:08:23.778Z,79.67
2023-01-04T01:10:52.087Z,80.01
2023-01-04T01:13:20.123Z,79.83
2023-01-04T01:15:47.209Z,79.65
2023-01-04T01:18:14.509Z,79.68
2023-01-04T01:20:44.019Z,79.92
2023-01-04T01:23:13.813Z,79.89
2023-01-04T01:25:41.987Z,79.54
2023-01-04T01:28:09.976Z,80.05
2023-01-04T01:30:41.927Z,79.90
2023-01-04T01:33:10.339Z,79.61
2023-01-04T01:35:37.907Z,80.02
2023-01-04T01:38:04.973Z,80.06
2023-01-04T01:40:32.044Z,80.12
2023-01-04T01:42:59.111Z,80.15
2023-01-04T01:45:32.446Z,80.65
2023-01-04T01:48:06.692Z,80.49
2023-01-04T01:50:39.191Z,80.18
2023-01-04T01:53:09.078Z,80.20
2023-01-04T01:55:37.160Z,80.17
2023-01-04T01:58:07.554Z,80.26
2023-01-04T02:00:35.201Z,80.04
2023-01-04T02:03:21.951Z,80.26
2023-01-04T02:05:53.833Z,80.64
2023-01-04T02:08:23.749Z,80.74
2023-01-04T02:10:51.022Z,80.98
2023-01-04T02:13:25.198Z,81.21
2023-01-04T02:16:20.461Z,81.68
2023-01-04T02:19:05.189Z,81.80
2023-01-04T02:21:55.297Z,81.63
2023-01-04T02:24:41.741Z,82.09
2023-01-04T02:27:38.518Z,82.31
2023-01-04T02:30:08.547Z,82.71
2023-01-04T02:32:38.297Z,82.77
2023-01-04T02:35:14.259Z,82.93
2023-01-04T02:38:16.493Z,83.10
2023-01-04T02:40:52.643Z,83.68
2023-01-04T02:43:53.457Z,83.50
2023-01-04T02:46:32.549Z,84.00
2023-01-04T02:49:19.409Z,84.37
2023-01-04T02:51:46.325Z,84.80
2023-01-04T02:54:17.337Z,85.43
2023-01-04T02:56:58.404Z,85.47
2023-01-04T02:59:34.168Z,85.37
2023-01-04T03:02:57.342Z,85.54
2023-01-04T03:05:52.232Z,85.56
2023-01-04T03:08:37.597Z,85.49
2023-01-04T03:11:30.669Z,85.87
2023-01-04T03:14:33.046Z,85.82
2023-01-04T03:16:53.357Z,85.73
2023-01-04T03:19:42.546Z,85.93
2023-01-04T03:22:33.764Z,86.45
2023-01-04T03:25:21.946Z,86.92
2023-01-04T03:28:11.559Z,86.78
2023-01-04T03:31:06.261Z,86.81
2023-01-04T03:33:52.366Z,87.09
2023-01-04T03:36:47.211Z,87.50
2023-01-04T03:39:57.840Z,87.35
2023-01-04T03:42:58.926Z,87.37
2023-01-04T03:45:56.696Z,87.46
2023-01-04T03:48:46.363Z,87.75
2023-01-04T03:51:15.960Z,87.79
2023-01-04T03:53:49.421Z,87.64
2023-01-04T03:56:18.796Z,88.16
2023-01-04T03:58:46.088Z,88.54
2023-01-04T04:01:13.655Z,87.85
2023-01-04T04:03:59.138Z,87.66
2023-01-04T04:06:44.662Z,87.79
2023-01-04T04:09:11.597Z,87.88
2023-01-04T04:11:39.612Z,87.58
2023-01-04T04:14:06.665Z,87.28
2023-01-04T04:16:33.994Z,87.68
2023-01-04T04:19:08.006Z,87.78
2023-01-04T04:21:35.810Z,87.53
2023-01-04T04:24:02.897Z,87.25
2023-01-04T04:26:29.986Z,87.17
2023-01-04T04:28:57.202Z,87.63
2023-01-04T04:31:24.635Z,87.73
2023-01-04T04:33:51.592Z,87.64
2023-01-04T04:36:18.610Z,87.22
2023-01-04T04:38:45.494Z,87.47
2023-01-04T04:41:32.333Z,87.53
2023-01-04T04:43:59.813Z,87.22
2023-01-04T04:46:27.149Z,87.43
2023-01-04T04:48:54.120Z,87.23
2023-01-04T04:51:21.195Z,87.33
2023-01-04T04:53:49.841Z,87.23
2023-01-04T04:56:16.978Z,87.18
2023-01-04T04:58:43.954Z,87.18
2023-01-04T05:01:10.969Z,86.88
2023-01-04T05:03:38.420Z,87.02
2023-01-04T05:06:05.491Z,87.58
2023-01-04T05:08:32.616Z,87.42
2023-01-04T05:10:59.731Z,87.47
2023-01-04T05:13:31.318Z,87.35
2023-01-04T05:15:58.685Z,87.78
2023-01-04T05:18:25.640Z,87.45
2023-01-04T05:20:53.010Z,87.51
2023-01-04T05:23:21.379Z,87.82
2023-01-04T05:26:00.445Z,87.81
2023-01-04T05:28:27.900Z,87.72
2023-01-04T05:30:55.839Z,88.27
2023-01-04T05:33:31.501Z,88.72
2023-01-04T05:36:01.536Z,88.89
2023-01-04T05:38:28.639Z,88.86
2023-01-04T05:40:56.401Z,88.58
2023-01-04T05:43:24.365Z,88.15
2023-01-04T05:45:54.190Z,87.99
2023-01-04T05:48:23.759Z,87.91
2023-01-04T05:50:50.773Z,87.95
2023-01-04T05:53:18.335Z,87.92
2023-01-04T05:55:47.513Z,87.60
2023-01-04T05:58:15.000Z,87.39
2023-01-04T06:00:41.919Z,87.29
2023-01-04T06:03:08.841Z,87.58
2023-01-04T06:05:35.882Z,87.48
2023-01-04T06:08:03.070Z,87.12
2023-01-04T06:10:30.121Z,87.13
2023-01-04T06:12:57.106Z,87.36
2023-01-04T06:15:24.342Z,87.50
2023-01-04T06:17:51.322Z,87.27
2023-01-04T06:20:18.428Z,87.32
2023-01-04T06:22:45.428Z,86.79
2023-01-04T06:25:12.475Z,86.50
2023-01-04T06:27:40.776Z,86.46
2023-01-04T06:30:08.625Z,86.24
2023-01-04T06:32:35.766Z,86.50
2023-01-04T06:35:02.873Z,86.07
2023-01-04T06:37:30.003Z,86.01
2023-01-04T06:39:56.834Z,86.00
2023-01-04T06:42:42.485Z,86.27
2023-01-04T06:45:10.052Z,86.60
2023-01-04T06:47:37.075Z,86.61
2023-01-04T06:50:05.136Z,86.10
2023-01-04T06:52:32.155Z,85.78
2023-01-04T06:54:59.177Z,85.68
2023-01-04T06:57:26.179Z,86.14
2023-01-04T06:59:53.263Z,85.92
2023-01-04T07:02:20.670Z,85.74
2023-01-04T07:04:47.997Z,85.14
2023-01-04T07:07:14.933Z,84.62
2023-01-04T07:09:41.796Z,84.45
2023-01-04T07:12:08.742Z,84.47
2023-01-04T07:14:35.897Z,84.43
2023-01-04T07:17:02.860Z,84.33
2023-01-04T07:19:29.755Z,84.38
2023-01-04T07:21:58.806Z,83.98
2023-01-04T07:24:30.018Z,83.97
2023-01-04T07:27:00.304Z,84.38
2023-01-04T07:29:28.067Z,83.99
2023-01-04T07:31:55.713Z,84.23
2023-01-04T07:34:25.321Z,84.14
2023-01-04T07:36:52.912Z,83.75
2023-01-04T07:39:21.514Z,83.23
2023-01-04T07:41:49.744Z,83.06
2023-01-04T07:44:21.566Z,82.53
2023-01-04T07:46:48.659Z,82.15
2023-01-04T07:49:18.685Z,82.39
2023-01-04T07:51:47.981Z,82.27
2023-01-04T07:54:16.632Z,81.89
2023-01-04T07:56:44.648Z,81.63
2023-01-04T07:59:13.505Z,82.10
2023-01-04T08:01:40.858Z,82.09
2023-01-04T08:04:10.098Z,82.58
2023-01-04T08:06:38.176Z,82.20
2023-01-04T08:09:06.968Z,81.53
2023-01-04T08:11:34.870Z,81.36
2023-01-04T08:14:02.058Z,80.66
2023-01-04T08:16:39.020Z,80.19
2023-01-04T08:19:24.839Z,80.56
2023-01-04T08:21:51.970Z,80.64
2023-01-04T08:24:21.195Z,80.92
2023-01-04T08:26:48.238Z,81.44
2023-01-04T08:29:15.639Z,81.32
2023-01-04T08:31:42.783Z,81.19
2023-01-04T08:34:10.824Z,80.79
2023-01-04T08:36:50.849Z,80.08
2023-01-04T08:39:18.104Z,80.47
2023-01-04T08:42:04.199Z,80.70
2023-01-04T08:44:38.428Z,81.13
2023-01-04T08:47:05.840Z,81.41
2023-01-04T09:06:09.162Z,81.03
2023-01-04T09:08:38.641Z,81.43
2023-01-04T09:11:14.467Z,81.47
2023-01-04T09:13:42.328Z,80.76
2023-01-04T09:16:12.218Z,80.54
2023-01-04T09:18:39.517Z,80.54
2023-01-04T09:21:08.853Z,81.13
2023-01-04T09:23:36.686Z,80.79
2023-01-04T09:26:09.791Z,80.25
2023-01-04T09:28:37.577Z,80.48
2023-01-04T09:31:16.919Z,80.52
2023-01-04T09:34:13.430Z,80.81
2023-01-04T09:36:32.621Z,80.12
2023-01-04T09:38:59.681Z,80.00
2023-01-04T09:41:34.746Z,78.61
2023-01-04T09:44:10.630Z,78.15
2023-01-04T09:46:43.534Z,77.85
2023-01-04T09:49:31.656Z,77.43
2023-01-04T09:52:10.389Z,77.69
2023-01-04T09:54:56.171Z,77.77
2023-01-04T09:57:30.193Z,78.02
2023-01-04T10:00:25.175Z,78.29
2023-01-04T10:03:12.396Z,77.86
2023-01-04T10:05:40.606Z,77.72
2023-01-04T10:08:15.362Z,78.15
2023-01-04T10:11:03.574Z,78.24
2023-01-04T10:13:58.586Z,78.25
2023-01-04T10:17:12.635Z,78.39
2023-01-04T10:22:41.978Z,78.56
2023-01-04T10:25:14.667Z,78.73
2023-01-04T10:27:53.685Z,78.66
2023-01-04T10:30:26.259Z,78.88
2023-01-04T10:32:59.351Z,79.13
2023-01-04T10:35:27.696Z,79.42
2023-01-04T10:37:59.516Z,79.10
2023-01-04T10:40:29.448Z,79.50
2023-01-04T10:43:30.355Z,79.49
2023-01-04T10:46:45.231Z,79.95
2023-01-04T10:49:38.597Z,80.21
2023-01-04T10:52:17.834Z,80.57
2023-01-04T10:54:52.429Z,80.50
2023-01-04T10:57:38.725Z,80.15
2023-01-04T11:00:23.551Z,80.00
2023-01-04T11:03:02.267Z,80.40
2023-01-04T11:05:48.510Z,79.79
2023-01-04T11:08:26.910Z,80.27
2023-01-04T11:11:04.503Z,80.81
2023-01-04T11:13:31.655Z,80.49
2023-01-04T11:16:01.495Z,79.91
2023-01-04T11:18:29.131Z,79.40
2023-01-04T11:20:55.928Z,79.47
2023-01-04T11:23:23.029Z,78.87
2023-01-04T11:25:56.678Z,78.23
2023-01-04T11:28:33.262Z,78.28
2023-01-04T11:31:30.550Z,79.11
2023-01-04T11:34:03.182Z,78.79
2023-01-04T11:36:41.081Z,79.34
2023-01-04T11:39:18.123Z,79.59
2023-01-04T11:42:03.281Z,79.40
2023-01-04T11:44:33.000Z,79.36
2023-01-04T11:47:24.298Z,79.32
2023-01-04T11:49:52.764Z,79.76
2023-01-04T11:52:37.788Z,79.16
2023-01-04T11:55:17.269Z,79.15
2023-01-04T11:57:44.926Z,79.21
2023-01-04T12:00:16.166Z,79.45
2023-01-04T12:03:00.563Z,79.47
2023-01-04T12:05:31.863Z,78.94
2023-01-04T12:07:59.672Z,78.99
2023-01-04T12:10:28.437Z,79.16
2023-01-04T12:12:58.920Z,79.50
2023-01-04T12:15:28.699Z,79.19
2023-01-04T12:18:03.088Z,78.94
2023-01-04T12:20:30.289Z,78.50
2023-01-04T12:22:57.146Z,78.65
2023-01-04T12:25:46.678Z,78.67
2023-01-04T12:28:34.848Z,78.24
2023-01-04T12:31:20.956Z,77.59
2023-01-04T12:34:00.701Z,77.92
2023-01-04T12:36:39.771Z,77.84
2023-01-04T12:39:13.420Z,77.28
2023-01-04T12:41:40.365Z,77.20
2023-01-04T12:44:47.757Z,77.27
2023-01-04T12:47:36.460Z,77.34
2023-01-04T12:50:08.172Z,76.88
2023-01-04T12:53:01.925Z,76.67
2023-01-04T12:55:32.225Z,76.50
2023-01-04T12:58:51.154Z,76.48
2023-01-04T13:01:25.484Z,76.65
2023-01-04T13:04:05.204Z,76.58
2023-01-04T13:06:42.721Z,76.99
2023-01-04T13:09:24.227Z,76.57
2023-01-04T13:12:05.931Z,76.52
2023-01-04T13:14:58.648Z,76.28
2023-01-04T13:17:27.398Z,76.54
2023-01-04T13:19:54.792Z,76.60
2023-01-04T13:22:30.360Z,76.40
2023-01-04T13:25:01.728Z,76.27
2023-01-04T13:27:29.704Z,76.39
2023-01-04T13:29:56.591Z,76.05
2023-01-04T13:32:24.808Z,76.20
2023-01-04T13:34:53.354Z,76.40
2023-01-04T13:37:26.924Z,76.34
2023-01-04T13:40:15.301Z,76.69
2023-01-04T13:42:46.968Z,76.56
2023-01-04T13:45:19.596Z,76.75
2023-01-04T13:47:51.527Z,76.82
2023-01-04T13:50:37.895Z,76.64
2023-01-04T13:53:08.127Z,76.72
2023-01-04T13:55:38.231Z,76.93
2023-01-04T13:58:15.768Z,76.81
2023-01-04T14:00:56.082Z,77.12
2023-01-04T14:03:40.182Z,76.43
2023-01-04T14:06:10.278Z,77.00
2023-01-04T14:08:55.577Z,76.72
2023-01-04T14:11:49.441Z,76.07
2023-01-04T14:14:51.821Z,75.83
2023-01-04T14:17:20.570Z,75.88
2023-01-04T14:20:20.124Z,76.14
2023-01-04T14:22:47.303Z,76.03
2023-01-04T14:25:37.075Z,76.73
2023-01-04T14:28:22.624Z,76.14
2023-01-04T14:30:52.477Z,76.97
2023-01-04T14:33:26.215Z,76.84
2023-01-04T14:36:11.477Z,76.93
2023-01-04T14:38:59.480Z,77.06
2023-01-04T14:41:42.039Z,76.99
2023-01-04T14:44:11.174Z,77.16
2023-01-04T14:46:38.961Z,77.40
2023-01-04T14:49:07.128Z,77.80
2023-01-04T14:51:34.342Z,78.40
2023-01-04T14:54:01.325Z,79.06
2023-01-04T14:56:28.457Z,78.82
2023-01-04T14:58:55.608Z,78.99
2023-01-04T15:01:22.772Z,78.97
2023-01-04T15:03:51.331Z,78.75
2023-01-04T15:06:18.856Z,78.54
2023-01-04T15:08:46.034Z,78.37
2023-01-04T15:11:14.026Z,78.36
2023-01-04T15:13:41.694Z,78.98
2023-01-04T15:16:12.341Z,79.01
2023-01-04T15:18:41.032Z,78.98
2023-01-04T15:21:09.605Z,79.27
2023-01-04T15:23:37.334Z,79.43
2023-01-04T15:26:08.804Z,79.72
2023-01-04T15:28:36.214Z,79.69
2023-01-04T15:31:11.488Z,79.95
2023-01-04T15:33:38.961Z,79.76
2023-01-04T15:36:09.111Z,80.34
2023-01-04T15:38:36.292Z,80.56
2023-01-04T15:41:05.838Z,80.95
2023-01-04T15:43:37.525Z,80.96
2023-01-04T15:46:07.740Z,81.13
2023-01-04T15:48:37.932Z,81.40
2023-01-04T15:51:09.862Z,81.72
2023-01-04T15:53:37.162Z,81.52
2023-01-04T15:56:07.479Z,81.66
2023-01-04T15:58:37.902Z,82.03
2023-01-04T16:01:10.470Z,82.37
2023-01-04T16:03:38.035Z,82.61
2023-01-04T16:06:10.679Z,82.71
2023-01-04T16:08:37.860Z,82.97
2023-01-04T16:11:20.597Z,83.65
2023-01-04T16:13:49.485Z,84.00
2023-01-04T16:16:17.296Z,83.33
2023-01-04T16:18:52.006Z,83.79
2023-01-04T16:21:27.474Z,83.42
2023-01-04T16:24:07.037Z,83.72
2023-01-04T16:26:40.138Z,84.15
2023-01-04T16:29:12.142Z,84.00
2023-01-04T16:31:40.245Z,84.07
2023-01-04T16:34:07.277Z,84.10
2023-01-04T16:36:34.348Z,83.05
2023-01-04T16:39:01.716Z,82.78
2023-01-04T16:41:28.671Z,82.55
2023-01-04T16:43:58.954Z,82.27
2023-01-04T16:46:34.852Z,82.33
2023-01-04T16:49:11.274Z,82.26
2023-01-04T16:51:40.182Z,81.97
2023-01-04T16:54:09.600Z,81.84
2023-01-04T16:56:36.661Z,81.99
2023-01-04T16:59:04.270Z,82.17
2023-01-04T17:01:33.915Z,82.00
2023-01-04T17:04:02.580Z,82.02
2023-01-04T17:06:31.905Z,82.51
2023-01-04T17:09:00.923Z,82.45
2023-01-04T17:14:18.254Z,82.85
2023-01-04T17:16:45.462Z,82.42
2023-01-04T17:19:12.442Z,82.34
2023-01-04T17:21:39.249Z,82.74
2023-01-04T17:24:06.761Z,82.64
2023-01-04T17:26:33.880Z,82.44
2023-01-04T17:29:02.374Z,82.66
2023-01-04T17:31:35.481Z,82.46
2023-01-04T17:34:03.421Z,83.07
2023-01-04T17:36:30.891Z,83.08
2023-01-04T17:39:01.608Z,83.27
2023-01-04T17:41:30.449Z,83.42
2023-01-04T17:44:00.422Z,83.45
2023-01-04T17:46:31.889Z,83.35
2023-01-04T17:49:25.536Z,84.20
2023-01-04T17:51:55.309Z,83.35
2023-01-04T17:54:23.069Z,83.44
2023-01-04T17:56:50.047Z,83.77
2023-01-04T17:59:17.040Z,84.30
2023-01-04T18:01:44.072Z,84.29
2023-01-04T18:04:11.426Z,83.79
2023-01-04T18:06:39.737Z,84.20
2023-01-04T18:09:08.074Z,84.24
2023-01-04T18:11:35.827Z,84.24
2023-01-04T18:14:07.779Z,84.40
2023-01-04T18:16:56.908Z,84.57
2023-01-04T18:19:30.727Z,84.74
2023-01-04T18:21:58.779Z,84.97
2023-01-04T18:24:41.979Z,84.96
2023-01-04T18:27:29.003Z,85.10
2023-01-04T18:29:56.689Z,84.90
2023-01-04T18:32:25.382Z,84.98
2023-01-04T18:34:52.335Z,85.14
2023-01-04T18:37:19.535Z,84.99
2023-01-04T18:39:48.084Z,84.61
2023-01-04T18:42:21.448Z,85.27
2023-01-04T18:44:49.642Z,85.38
2023-01-04T18:49:00.490Z,85.10
2023-01-04T18:52:09.673Z,85.41
2023-01-04T18:54:36.984Z,85.70
2023-01-04T18:57:05.171Z,86.04
2023-01-04T18:59:37.863Z,86.11
2023-01-04T19:02:17.216Z,86.53
2023-01-04T19:04:44.575Z,86.52
2023-01-04T19:07:11.500Z,86.64
2023-01-04T19:09:39.525Z,86.69
2023-01-04T19:12:07.966Z,86.58
2023-01-04T19:14:37.361Z,86.94
2023-01-04T19:17:05.119Z,86.71
2023-01-04T19:19:32.125Z,86.95
2023-01-04T19:21:59.168Z,87.21
2023-01-04T19:24:27.021Z,87.04
2023-01-04T19:26:55.155Z,86.79
2023-01-04T19:29:22.779Z,86.54
2023-01-04T19:36:58.586Z,86.46
2023-01-04T19:39:25.409Z,86.56
2023-01-04T19:41:52.182Z,86.62
2023-01-04T19:44:25.589Z,87.08
2023-01-04T19:46:52.673Z,87.46
2023-01-04T19:49:19.659Z,87.83
2023-01-04T19:51:48.978Z,87.96
2023-01-04T19:54:21.700Z,88.38
2023-01-04T19:56:52.281Z,87.94
2023-01-04T19:59:19.341Z,88.16
2023-01-04T20:01:46.426Z,88.12
2023-01-04T20:04:14.158Z,88.10
2023-01-04T20:06:41.477Z,88.16
2023-01-04T20:09:08.539Z,87.69
2023-01-04T20:11:36.283Z,87.72
2023-01-04T20:14:03.279Z,87.96
2023-01-04T20:16:30.421Z,88.33
2023-01-04T20:18:58.373Z,88.33
2023-01-04T20:21:25.459Z,88.47
2023-01-04T20:23:52.300Z,88.66
2023-01-04T20:26:19.583Z,88.92
2023-01-04T20:28:46.530Z,88.70
2023-01-04T20:31:16.495Z,89.12
2023-01-04T20:33:43.937Z,88.79
2023-01-04T20:36:17.098Z,89.12
2023-01-04T20:38:45.838Z,89.67
2023-01-04T20:41:18.386Z,89.40
2023-01-04T20:43:46.574Z,89.30
2023-01-04T20:46:19.220Z,89.64
2023-01-04T20:48:46.996Z,89.57
2023-01-04T20:51:19.546Z,89.58
2023-01-04T20:53:46.564Z,90.31
2023-01-04T20:56:18.983Z,90.69
2023-01-04T20:58:47.458Z,91.07
2023-01-04T21:01:16.597Z,90.85
2023-01-04T21:03:44.329Z,90.71
2023-01-04T21:06:14.351Z,90.53
2023-01-04T21:08:42.817Z,90.54
2023-01-04T21:11:10.379Z,90.47
2023-01-04T21:13:37.224Z,90.44
2023-01-04T21:16:05.348Z,90.61
2023-01-04T21:18:32.966Z,90.71
2023-01-04T21:21:05.466Z,90.30
2023-01-04T21:23:32.375Z,89.67
2023-01-04T21:25:59.290Z,89.69
2023-01-04T21:28:27.325Z,89.56
2023-01-04T21:30:54.196Z,89.60
2023-01-04T21:33:21.190Z,89.15
2023-01-04T21:35:48.135Z,89.18
2023-01-04T21:38:15.090Z,89.08
2023-01-04T21:40:42.820Z,88.90
2023-01-04T21:43:16.413Z,88.89
2023-01-04T21:45:43.980Z,89.10
2023-01-04T21:48:10.998Z,88.65
2023-01-04T21:50:37.943Z,88.81
2023-01-04T21:53:04.962Z,89.08
2023-01-04T21:55:34.841Z,89.06
2023-01-04T21:58:03.170Z,88.89
2023-01-04T22:00:30.225Z,88.42
2023-01-04T22:02:57.079Z,88.43
2023-01-04T22:05:24.031Z,88.48
2023-01-04T22:07:51.197Z,88.33
2023-01-04T22:10:18.201Z,88.15
2023-01-04T22:12:47.949Z,88.07
2023-01-04T22:15:15.072Z,87.66
2023-01-04T22:17:41.914Z,87.91
2023-01-04T22:20:09.335Z,87.40
2023-01-04T22:22:36.218Z,87.32
2023-01-04T22:25:03.232Z,87.62
2023-01-04T22:27:30.104Z,87.45
2023-01-04T22:29:57.113Z,87.75
2023-01-04T22:32:24.035Z,87.70
2023-01-04T22:34:50.948Z,88.17
2023-01-04T22:37:17.924Z,88.15
2023-01-04T22:39:44.722Z,87.96
2023-01-04T22:42:11.797Z,87.67
2023-01-04T22:44:38.684Z,87.73
2023-01-04T22:47:06.048Z,87.57
2023-01-04T22:49:33.417Z,87.75
2023-01-04T22:52:00.361Z,88.00
2023-01-04T22:54:27.452Z,87.92
2023-01-04T22:56:54.308Z,87.69
2023-01-04T22:59:23.144Z,87.87
2023-01-04T23:01:50.087Z,88.12
2023-01-04T23:04:17.703Z,88.30
2023-01-04T23:06:45.671Z,88.94
2023-01-04T23:09:15.819Z,89.08
2023-01-04T23:11:43.359Z,88.63
2023-01-04T23:14:15.128Z,88.48
2023-01-04T23:16:42.690Z,88.41
2023-01-04T23:19:11.603Z,88.34
2023-01-04T23:21:38.748Z,88.34
2023-01-04T23:24:06.248Z,88.14
2023-01-04T23:26:34.250Z,88.27
2023-01-04T23:29:01.939Z,88.44
2023-01-04T23:31:31.665Z,88.45
2023-01-04T23:34:01.583Z,88.53
2023-01-04T23:36:37.205Z,88.92
2023-01-04T23:39:07.488Z,88.86
2023-01-04T23:41:45.191Z,89.39
2023-01-04T23:44:29.107Z,89.75
2023-01-04T23:47:01.497Z,89.57
2023-01-04T23:49:31.611Z,89.65
2023-01-04T23:51:59.341Z,89.81
2023-01-04T23:54:26.466Z,90.23
2023-01-04T23:56:54.299Z,89.93
2023-01-04T23:59:22.492Z,89.80
